KBLH/BLH METAR and TAF weather

Enter ICAO airport designator
Station Type Date Time Source
KBLH METAR 2021/04/17 01:52 UTC NOAA

KBLH 170152Z AUTO 14006KT 10SM CLR 28/M08 A2977 RMK AO2 SLP074 T02781078


Station Type Date Time Source
KBLH Decoded METAR 2021/04/17 01:52 UTC NOAA

BLYTHE AIRPORT, CA, United States (KBLH) 33-37N 114-43W 119M
Apr 16, 2021 - 09:52 PM EDT / 2021.04.17 0152 UTC
Wind: from the SE (140 degrees) at 7 MPH (6 KT):0
Visibility: 10 mile(s):0
Sky conditions: clear
Temperature: 82.0 F (27.8 C)
Dew Point: 18.0 F (-7.8 C)
Relative Humidity: 9%
Pressure (altimeter): 29.77 in. Hg (1008 hPa)
ob: KBLH 170152Z AUTO 14006KT 10SM CLR 28/M08 A2977 RMK AO2 SLP074 T02781078
cycle: 2

Station Type Date Time Source
KBLH TAF 2021/04/16 18:36 UTC NOAA

TAF KBLH 161735Z 1618/1718 VRB04KT P6SM FEW250
FM170500 26005KT P6SM SKC
FM170900 30005KT P6SM SKC
FM171500 36010KT P6SM FEW250

Example: see airport list